sensor_id;sensor_type;location;lat;lon;timestamp;P1;durP1;ratioP1;P2;durP2;ratioP2
66721;SDS011;53633;49.932;10.884;2023-03-01T00:00:09;21.15;;;7.82;;
66721;SDS011;53633;49.932;10.884;2023-03-01T00:02:37;19.38;;;7.25;;
66721;SDS011;53633;49.932;10.884;2023-03-01T00:05:04;21.77;;;7.90;;
66721;SDS011;53633;49.932;10.884;2023-03-01T00:07:31;21.75;;;7.10;;
66721;SDS011;53633;49.932;10.884;2023-03-01T00:09:58;21.23;;;7.68;;
66721;SDS011;53633;49.932;10.884;2023-03-01T00:12:26;17.75;;;7.15;;
66721;SDS011;53633;49.932;10.884;2023-03-01T00:14:53;23.38;;;8.05;;
66721;SDS011;53633;49.932;10.884;2023-03-01T00:17:19;22.30;;;7.40;;
66721;SDS011;53633;49.932;10.884;2023-03-01T00:19:46;20.65;;;7.28;;
66721;SDS011;53633;49.932;10.884;2023-03-01T00:22:13;19.40;;;8.05;;
66721;SDS011;53633;49.932;10.884;2023-03-01T00:24:40;23.08;;;8.57;;
66721;SDS011;53633;49.932;10.884;2023-03-01T00:27:06;21.13;;;8.32;;
66721;SDS011;53633;49.932;10.884;2023-03-01T00:29:34;27.43;;;8.93;;
66721;SDS011;53633;49.932;10.884;2023-03-01T00:32:01;20.63;;;8.10;;
66721;SDS011;53633;49.932;10.884;2023-03-01T00:34:28;21.38;;;8.70;;
66721;SDS011;53633;49.932;10.884;2023-03-01T00:36:55;23.92;;;9.18;;
66721;SDS011;53633;49.932;10.884;2023-03-01T00:39:21;23.65;;;9.23;;
66721;SDS011;53633;49.932;10.884;2023-03-01T00:41:48;25.07;;;9.27;;
66721;SDS011;53633;49.932;10.884;2023-03-01T00:44:15;24.67;;;8.15;;
66721;SDS011;53633;49.932;10.884;2023-03-01T00:46:43;27.13;;;9.48;;
66721;SDS011;53633;49.932;10.884;2023-03-01T00:49:10;27.35;;;10.02;;
66721;SDS011;53633;49.932;10.884;2023-03-01T00:51:36;21.63;;;8.85;;
66721;SDS011;53633;49.932;10.884;2023-03-01T00:54:03;27.47;;;9.73;;
66721;SDS011;53633;49.932;10.884;2023-03-01T00:56:30;24.65;;;9.48;;
66721;SDS011;53633;49.932;10.884;2023-03-01T00:58:58;21.35;;;8.38;;
66721;SDS011;53633;49.932;10.884;2023-03-01T01:01:25;23.58;;;8.48;;
66721;SDS011;53633;49.932;10.884;2023-03-01T01:03:55;24.65;;;9.05;;
66721;SDS011;53633;49.932;10.884;2023-03-01T01:06:24;22.47;;;9.27;;
66721;SDS011;53633;49.932;10.884;2023-03-01T01:08:52;23.35;;;8.73;;
66721;SDS011;53633;49.932;10.884;2023-03-01T01:11:21;23.02;;;9.02;;
66721;SDS011;53633;49.932;10.884;2023-03-01T01:13:48;23.75;;;8.52;;
66721;SDS011;53633;49.932;10.884;2023-03-01T01:16:16;24.10;;;8.63;;
66721;SDS011;53633;49.932;10.884;2023-03-01T01:18:43;24.93;;;9.53;;
66721;SDS011;53633;49.932;10.884;2023-03-01T01:21:13;23.15;;;9.02;;
66721;SDS011;53633;49.932;10.884;2023-03-01T01:23:42;25.98;;;9.70;;
66721;SDS011;53633;49.932;10.884;2023-03-01T01:26:11;25.67;;;9.38;;
66721;SDS011;53633;49.932;10.884;2023-03-01T01:28:38;26.25;;;10.13;;
66721;SDS011;53633;49.932;10.884;2023-03-01T01:31:06;27.90;;;9.33;;
66721;SDS011;53633;49.932;10.884;2023-03-01T01:33:33;24.85;;;9.70;;
66721;SDS011;53633;49.932;10.884;2023-03-01T01:36:00;25.30;;;10.10;;
66721;SDS011;53633;49.932;10.884;2023-03-01T01:38:28;26.98;;;9.55;;
66721;SDS011;53633;49.932;10.884;2023-03-01T01:40:55;21.52;;;8.52;;
66721;SDS011;53633;49.932;10.884;2023-03-01T01:43:23;24.20;;;9.27;;
66721;SDS011;53633;49.932;10.884;2023-03-01T01:45:52;21.50;;;8.38;;
66721;SDS011;53633;49.932;10.884;2023-03-01T01:48:24;22.33;;;9.10;;
66721;SDS011;53633;49.932;10.884;2023-03-01T01:50:55;22.52;;;8.07;;
66721;SDS011;53633;49.932;10.884;2023-03-01T01:53:25;22.30;;;8.30;;
66721;SDS011;53633;49.932;10.884;2023-03-01T01:55:56;24.60;;;8.83;;
66721;SDS011;53633;49.932;10.884;2023-03-01T01:58:27;21.80;;;8.95;;
66721;SDS011;53633;49.932;10.884;2023-03-01T02:00:56;23.95;;;9.15;;
66721;SDS011;53633;49.932;10.884;2023-03-01T02:03:24;21.77;;;8.48;;
66721;SDS011;53633;49.932;10.884;2023-03-01T02:05:55;24.42;;;7.78;;
66721;SDS011;53633;49.932;10.884;2023-03-01T02:08:27;24.77;;;9.60;;
66721;SDS011;53633;49.932;10.884;2023-03-01T02:10:57;21.23;;;8.60;;
66721;SDS011;53633;49.932;10.884;2023-03-01T02:13:25;24.55;;;8.88;;
66721;SDS011;53633;49.932;10.884;2023-03-01T02:15:52;24.98;;;10.88;;
66721;SDS011;53633;49.932;10.884;2023-03-01T02:18:20;29.25;;;10.77;;
66721;SDS011;53633;49.932;10.884;2023-03-01T02:20:50;24.90;;;9.17;;
66721;SDS011;53633;49.932;10.884;2023-03-01T02:23:25;26.05;;;9.57;;
66721;SDS011;53633;49.932;10.884;2023-03-01T02:25:54;23.67;;;8.98;;
66721;SDS011;53633;49.932;10.884;2023-03-01T02:28:27;25.13;;;9.68;;
66721;SDS011;53633;49.932;10.884;2023-03-01T02:30:56;25.45;;;9.60;;
66721;SDS011;53633;49.932;10.884;2023-03-01T02:33:24;24.00;;;8.83;;
66721;SDS011;53633;49.932;10.884;2023-03-01T02:35:51;24.92;;;9.43;;
66721;SDS011;53633;49.932;10.884;2023-03-01T02:38:20;26.25;;;8.60;;
66721;SDS011;53633;49.932;10.884;2023-03-01T02:40:49;27.05;;;9.65;;
66721;SDS011;53633;49.932;10.884;2023-03-01T02:43:16;25.33;;;10.02;;
66721;SDS011;53633;49.932;10.884;2023-03-01T02:45:52;23.13;;;8.80;;
66721;SDS011;53633;49.932;10.884;2023-03-01T02:48:23;23.98;;;9.82;;
66721;SDS011;53633;49.932;10.884;2023-03-01T02:50:56;26.67;;;9.57;;
66721;SDS011;53633;49.932;10.884;2023-03-01T02:53:33;27.73;;;9.45;;
66721;SDS011;53633;49.932;10.884;2023-03-01T02:56:05;26.75;;;9.40;;
66721;SDS011;53633;49.932;10.884;2023-03-01T02:58:32;23.73;;;8.80;;
66721;SDS011;53633;49.932;10.884;2023-03-01T03:01:00;24.98;;;8.85;;
66721;SDS011;53633;49.932;10.884;2023-03-01T03:03:27;27.48;;;9.15;;
66721;SDS011;53633;49.932;10.884;2023-03-01T03:05:53;22.92;;;8.73;;
66721;SDS011;53633;49.932;10.884;2023-03-01T03:08:20;23.60;;;8.77;;
66721;SDS011;53633;49.932;10.884;2023-03-01T03:10:47;23.07;;;8.70;;
66721;SDS011;53633;49.932;10.884;2023-03-01T03:13:14;24.80;;;9.18;;
66721;SDS011;53633;49.932;10.884;2023-03-01T03:15:41;24.48;;;9.07;;
66721;SDS011;53633;49.932;10.884;2023-03-01T03:18:12;27.02;;;8.82;;
66721;SDS011;53633;49.932;10.884;2023-03-01T03:20:40;20.55;;;8.57;;
66721;SDS011;53633;49.932;10.884;2023-03-01T03:23:08;24.17;;;9.20;;
66721;SDS011;53633;49.932;10.884;2023-03-01T03:25:35;20.50;;;8.50;;
66721;SDS011;53633;49.932;10.884;2023-03-01T03:28:02;24.88;;;8.48;;
66721;SDS011;53633;49.932;10.884;2023-03-01T03:30:29;26.30;;;9.25;;
66721;SDS011;53633;49.932;10.884;2023-03-01T03:32:57;23.70;;;8.18;;
66721;SDS011;53633;49.932;10.884;2023-03-01T03:35:28;25.10;;;9.50;;
66721;SDS011;53633;49.932;10.884;2023-03-01T03:37:57;26.08;;;8.57;;
66721;SDS011;53633;49.932;10.884;2023-03-01T03:40:24;30.95;;;9.60;;
66721;SDS011;53633;49.932;10.884;2023-03-01T03:42:51;24.52;;;8.95;;
66721;SDS011;53633;49.932;10.884;2023-03-01T03:45:18;23.15;;;8.90;;
66721;SDS011;53633;49.932;10.884;2023-03-01T03:47:45;27.50;;;9.30;;
66721;SDS011;53633;49.932;10.884;2023-03-01T03:50:13;24.65;;;9.70;;
66721;SDS011;53633;49.932;10.884;2023-03-01T03:52:43;23.35;;;9.60;;
66721;SDS011;53633;49.932;10.884;2023-03-01T03:55:10;24.75;;;8.98;;
66721;SDS011;53633;49.932;10.884;2023-03-01T03:57:39;24.45;;;9.25;;
66721;SDS011;53633;49.932;10.884;2023-03-01T04:00:08;24.10;;;9.23;;
66721;SDS011;53633;49.932;10.884;2023-03-01T04:02:36;23.45;;;8.77;;
66721;SDS011;53633;49.932;10.884;2023-03-01T04:05:03;22.00;;;8.65;;
66721;SDS011;53633;49.932;10.884;2023-03-01T04:07:31;25.23;;;10.27;;
66721;SDS011;53633;49.932;10.884;2023-03-01T04:09:59;28.50;;;9.35;;
66721;SDS011;53633;49.932;10.884;2023-03-01T04:12:25;25.27;;;9.00;;
66721;SDS011;53633;49.932;10.884;2023-03-01T04:14:52;23.33;;;9.70;;
66721;SDS011;53633;49.932;10.884;2023-03-01T04:17:19;24.27;;;9.75;;
66721;SDS011;53633;49.932;10.884;2023-03-01T04:19:46;23.38;;;10.05;;
66721;SDS011;53633;49.932;10.884;2023-03-01T04:22:12;26.20;;;9.77;;
66721;SDS011;53633;49.932;10.884;2023-03-01T04:24:39;22.90;;;9.47;;
66721;SDS011;53633;49.932;10.884;2023-03-01T04:27:07;24.08;;;9.07;;
66721;SDS011;53633;49.932;10.884;2023-03-01T04:29:34;22.58;;;8.70;;
66721;SDS011;53633;49.932;10.884;2023-03-01T04:32:01;23.75;;;7.65;;
66721;SDS011;53633;49.932;10.884;2023-03-01T04:34:27;23.73;;;8.13;;
66721;SDS011;53633;49.932;10.884;2023-03-01T04:36:54;20.37;;;7.80;;
66721;SDS011;53633;49.932;10.884;2023-03-01T04:39:21;24.13;;;8.93;;
66721;SDS011;53633;49.932;10.884;2023-03-01T04:41:48;24.80;;;8.40;;
66721;SDS011;53633;49.932;10.884;2023-03-01T04:44:16;25.55;;;8.65;;
66721;SDS011;53633;49.932;10.884;2023-03-01T04:46:43;28.35;;;8.77;;
66721;SDS011;53633;49.932;10.884;2023-03-01T04:49:09;21.87;;;8.63;;
66721;SDS011;53633;49.932;10.884;2023-03-01T04:51:36;25.05;;;8.40;;
66721;SDS011;53633;49.932;10.884;2023-03-01T04:54:03;22.45;;;8.85;;
66721;SDS011;53633;49.932;10.884;2023-03-01T04:56:30;22.08;;;8.52;;
66721;SDS011;53633;49.932;10.884;2023-03-01T04:58:57;22.83;;;8.15;;
66721;SDS011;53633;49.932;10.884;2023-03-01T05:01:25;22.50;;;8.60;;
66721;SDS011;53633;49.932;10.884;2023-03-01T05:03:52;20.65;;;8.95;;
66721;SDS011;53633;49.932;10.884;2023-03-01T05:06:19;27.50;;;9.07;;
66721;SDS011;53633;49.932;10.884;2023-03-01T05:08:46;25.77;;;9.20;;
66721;SDS011;53633;49.932;10.884;2023-03-01T05:11:13;26.45;;;9.25;;
66721;SDS011;53633;49.932;10.884;2023-03-01T05:13:40;27.70;;;9.23;;
66721;SDS011;53633;49.932;10.884;2023-03-01T05:16:08;24.27;;;9.15;;
66721;SDS011;53633;49.932;10.884;2023-03-01T05:18:37;23.02;;;8.63;;
66721;SDS011;53633;49.932;10.884;2023-03-01T05:21:05;21.00;;;9.05;;
66721;SDS011;53633;49.932;10.884;2023-03-01T05:23:33;22.70;;;9.23;;
66721;SDS011;53633;49.932;10.884;2023-03-01T05:26:00;24.47;;;9.70;;
66721;SDS011;53633;49.932;10.884;2023-03-01T05:28:28;25.73;;;9.30;;
66721;SDS011;53633;49.932;10.884;2023-03-01T05:30:55;22.90;;;9.10;;
66721;SDS011;53633;49.932;10.884;2023-03-01T05:33:22;25.17;;;9.23;;
66721;SDS011;53633;49.932;10.884;2023-03-01T05:35:51;23.55;;;9.38;;
66721;SDS011;53633;49.932;10.884;2023-03-01T05:38:19;27.37;;;9.43;;
66721;SDS011;53633;49.932;10.884;2023-03-01T05:40:46;27.05;;;8.98;;
66721;SDS011;53633;49.932;10.884;2023-03-01T05:43:15;24.77;;;8.98;;
66721;SDS011;53633;49.932;10.884;2023-03-01T05:45:43;25.60;;;9.38;;
66721;SDS011;53633;49.932;10.884;2023-03-01T05:48:10;25.15;;;9.02;;
66721;SDS011;53633;49.932;10.884;2023-03-01T05:50:39;25.73;;;9.90;;
66721;SDS011;53633;49.932;10.884;2023-03-01T05:53:09;25.70;;;8.50;;
66721;SDS011;53633;49.932;10.884;2023-03-01T05:55:37;22.67;;;9.18;;
66721;SDS011;53633;49.932;10.884;2023-03-01T05:58:04;26.38;;;9.73;;
66721;SDS011;53633;49.932;10.884;2023-03-01T06:00:32;25.13;;;9.50;;
66721;SDS011;53633;49.932;10.884;2023-03-01T06:03:00;22.90;;;8.57;;
66721;SDS011;53633;49.932;10.884;2023-03-01T06:05:27;25.38;;;9.15;;
66721;SDS011;53633;49.932;10.884;2023-03-01T06:07:54;24.40;;;9.60;;
66721;SDS011;53633;49.932;10.884;2023-03-01T06:10:25;24.02;;;9.32;;
66721;SDS011;53633;49.932;10.884;2023-03-01T06:12:52;26.35;;;9.07;;
66721;SDS011;53633;49.932;10.884;2023-03-01T06:15:19;25.63;;;10.20;;
66721;SDS011;53633;49.932;10.884;2023-03-01T06:17:46;26.38;;;9.35;;
66721;SDS011;53633;49.932;10.884;2023-03-01T06:20:14;27.17;;;10.30;;
66721;SDS011;53633;49.932;10.884;2023-03-01T06:22:44;26.45;;;10.00;;
66721;SDS011;53633;49.932;10.884;2023-03-01T06:25:13;26.58;;;10.00;;
66721;SDS011;53633;49.932;10.884;2023-03-01T06:27:42;25.83;;;9.93;;
66721;SDS011;53633;49.932;10.884;2023-03-01T06:30:10;27.02;;;9.75;;
66721;SDS011;53633;49.932;10.884;2023-03-01T06:32:38;24.85;;;9.68;;
66721;SDS011;53633;49.932;10.884;2023-03-01T06:35:05;23.95;;;9.55;;
66721;SDS011;53633;49.932;10.884;2023-03-01T06:37:32;24.15;;;9.82;;
66721;SDS011;53633;49.932;10.884;2023-03-01T06:39:59;24.13;;;9.77;;
66721;SDS011;53633;49.932;10.884;2023-03-01T06:42:25;26.33;;;9.60;;
66721;SDS011;53633;49.932;10.884;2023-03-01T06:44:53;33.22;;;11.77;;
66721;SDS011;53633;49.932;10.884;2023-03-01T06:47:20;31.83;;;11.18;;
66721;SDS011;53633;49.932;10.884;2023-03-01T06:49:47;31.55;;;11.07;;
66721;SDS011;53633;49.932;10.884;2023-03-01T06:52:13;27.83;;;10.10;;
66721;SDS011;53633;49.932;10.884;2023-03-01T06:54:40;27.98;;;10.18;;
66721;SDS011;53633;49.932;10.884;2023-03-01T06:57:07;26.73;;;10.27;;
66721;SDS011;53633;49.932;10.884;2023-03-01T06:59:33;27.20;;;10.20;;
66721;SDS011;53633;49.932;10.884;2023-03-01T07:02:02;32.17;;;10.45;;
66721;SDS011;53633;49.932;10.884;2023-03-01T07:04:28;25.23;;;9.80;;
66721;SDS011;53633;49.932;10.884;2023-03-01T07:06:55;25.15;;;10.38;;
66721;SDS011;53633;49.932;10.884;2023-03-01T07:09:22;26.05;;;11.02;;
66721;SDS011;53633;49.932;10.884;2023-03-01T07:11:49;22.15;;;9.27;;
66721;SDS011;53633;49.932;10.884;2023-03-01T07:14:16;26.60;;;9.98;;
66721;SDS011;53633;49.932;10.884;2023-03-01T07:16:43;24.33;;;9.80;;
66721;SDS011;53633;49.932;10.884;2023-03-01T07:19:11;23.60;;;10.63;;
66721;SDS011;53633;49.932;10.884;2023-03-01T07:21:38;25.30;;;10.70;;
66721;SDS011;53633;49.932;10.884;2023-03-01T07:24:05;28.67;;;11.00;;
66721;SDS011;53633;49.932;10.884;2023-03-01T07:26:33;26.17;;;10.55;;
66721;SDS011;53633;49.932;10.884;2023-03-01T07:29:00;23.08;;;10.10;;
66721;SDS011;53633;49.932;10.884;2023-03-01T07:31:27;21.98;;;10.23;;
66721;SDS011;53633;49.932;10.884;2023-03-01T07:33:54;23.15;;;10.82;;
66721;SDS011;53633;49.932;10.884;2023-03-01T07:36:23;25.42;;;11.18;;
66721;SDS011;53633;49.932;10.884;2023-03-01T07:38:51;21.55;;;10.43;;
66721;SDS011;53633;49.932;10.884;2023-03-01T07:41:17;23.23;;;10.38;;
66721;SDS011;53633;49.932;10.884;2023-03-01T07:43:44;24.05;;;10.48;;
66721;SDS011;53633;49.932;10.884;2023-03-01T07:46:11;22.88;;;10.48;;
66721;SDS011;53633;49.932;10.884;2023-03-01T07:48:38;21.25;;;10.68;;
66721;SDS011;53633;49.932;10.884;2023-03-01T07:51:05;22.50;;;9.77;;
66721;SDS011;53633;49.932;10.884;2023-03-01T07:53:34;24.02;;;10.73;;
66721;SDS011;53633;49.932;10.884;2023-03-01T07:56:01;21.50;;;11.15;;
66721;SDS011;53633;49.932;10.884;2023-03-01T07:58:29;23.33;;;10.65;;
66721;SDS011;53633;49.932;10.884;2023-03-01T08:00:56;22.63;;;10.45;;
66721;SDS011;53633;49.932;10.884;2023-03-01T08:03:27;24.52;;;11.13;;
66721;SDS011;53633;49.932;10.884;2023-03-01T08:05:54;20.35;;;10.48;;
66721;SDS011;53633;49.932;10.884;2023-03-01T08:08:20;20.98;;;10.77;;
66721;SDS011;53633;49.932;10.884;2023-03-01T08:10:49;20.40;;;10.73;;
66721;SDS011;53633;49.932;10.884;2023-03-01T08:13:15;20.98;;;10.38;;
66721;SDS011;53633;49.932;10.884;2023-03-01T08:15:42;22.92;;;10.32;;
66721;SDS011;53633;49.932;10.884;2023-03-01T08:18:09;26.40;;;11.35;;
66721;SDS011;53633;49.932;10.884;2023-03-01T08:20:35;21.90;;;11.27;;
66721;SDS011;53633;49.932;10.884;2023-03-01T08:23:02;21.98;;;10.80;;
66721;SDS011;53633;49.932;10.884;2023-03-01T08:25:29;21.75;;;10.90;;
66721;SDS011;53633;49.932;10.884;2023-03-01T08:27:57;21.48;;;10.20;;
66721;SDS011;53633;49.932;10.884;2023-03-01T08:30:24;22.17;;;10.68;;
66721;SDS011;53633;49.932;10.884;2023-03-01T08:32:51;22.42;;;11.20;;
66721;SDS011;53633;49.932;10.884;2023-03-01T08:35:18;20.05;;;10.75;;
66721;SDS011;53633;49.932;10.884;2023-03-01T08:37:46;20.10;;;11.35;;
66721;SDS011;53633;49.932;10.884;2023-03-01T08:40:13;22.30;;;11.65;;
66721;SDS011;53633;49.932;10.884;2023-03-01T08:42:40;22.02;;;11.23;;
66721;SDS011;53633;49.932;10.884;2023-03-01T08:45:09;21.27;;;11.37;;
66721;SDS011;53633;49.932;10.884;2023-03-01T08:47:37;22.23;;;11.77;;
66721;SDS011;53633;49.932;10.884;2023-03-01T08:50:04;18.90;;;10.50;;
66721;SDS011;53633;49.932;10.884;2023-03-01T08:52:31;23.48;;;11.32;;
66721;SDS011;53633;49.932;10.884;2023-03-01T08:54:58;22.38;;;12.00;;
66721;SDS011;53633;49.932;10.884;2023-03-01T08:57:25;20.33;;;10.27;;
66721;SDS011;53633;49.932;10.884;2023-03-01T08:59:52;22.98;;;10.93;;
66721;SDS011;53633;49.932;10.884;2023-03-01T09:02:20;24.10;;;11.25;;
66721;SDS011;53633;49.932;10.884;2023-03-01T09:04:47;20.98;;;10.43;;
66721;SDS011;53633;49.932;10.884;2023-03-01T09:07:14;21.13;;;10.25;;
66721;SDS011;53633;49.932;10.884;2023-03-01T09:09:40;20.95;;;10.32;;
66721;SDS011;53633;49.932;10.884;2023-03-01T09:12:07;19.33;;;9.70;;
66721;SDS011;53633;49.932;10.884;2023-03-01T09:14:34;20.75;;;9.98;;
66721;SDS011;53633;49.932;10.884;2023-03-01T09:17:01;20.65;;;9.88;;
66721;SDS011;53633;49.932;10.884;2023-03-01T09:19:29;24.92;;;9.85;;
66721;SDS011;53633;49.932;10.884;2023-03-01T09:21:56;22.75;;;10.00;;
66721;SDS011;53633;49.932;10.884;2023-03-01T09:24:23;20.67;;;9.52;;
66721;SDS011;53633;49.932;10.884;2023-03-01T09:26:51;22.30;;;9.90;;
66721;SDS011;53633;49.932;10.884;2023-03-01T09:29:19;18.98;;;9.23;;
66721;SDS011;53633;49.932;10.884;2023-03-01T09:31:46;22.73;;;9.02;;
66721;SDS011;53633;49.932;10.884;2023-03-01T09:34:13;23.77;;;9.48;;
66721;SDS011;53633;49.932;10.884;2023-03-01T09:36:41;20.45;;;9.07;;
66721;SDS011;53633;49.932;10.884;2023-03-01T09:39:08;22.33;;;9.48;;
66721;SDS011;53633;49.932;10.884;2023-03-01T09:41:44;25.45;;;10.00;;
66721;SDS011;53633;49.932;10.884;2023-03-01T09:44:18;20.05;;;9.27;;
66721;SDS011;53633;49.932;10.884;2023-03-01T09:46:55;20.95;;;9.95;;
66721;SDS011;53633;49.932;10.884;2023-03-01T09:49:23;24.00;;;9.45;;
66721;SDS011;53633;49.932;10.884;2023-03-01T09:51:57;21.00;;;9.25;;
66721;SDS011;53633;49.932;10.884;2023-03-01T09:54:26;20.92;;;8.85;;
66721;SDS011;53633;49.932;10.884;2023-03-01T09:56:57;20.33;;;8.73;;
66721;SDS011;53633;49.932;10.884;2023-03-01T09:59:31;22.88;;;9.50;;
66721;SDS011;53633;49.932;10.884;2023-03-01T10:02:11;21.08;;;9.40;;
66721;SDS011;53633;49.932;10.884;2023-03-01T10:04:50;25.02;;;10.55;;
66721;SDS011;53633;49.932;10.884;2023-03-01T10:07:27;24.48;;;10.13;;
66721;SDS011;53633;49.932;10.884;2023-03-01T10:09:59;20.42;;;8.02;;
66721;SDS011;53633;49.932;10.884;2023-03-01T10:12:26;25.65;;;10.25;;
66721;SDS011;53633;49.932;10.884;2023-03-01T10:15:01;23.38;;;8.93;;
66721;SDS011;53633;49.932;10.884;2023-03-01T10:17:33;20.67;;;9.35;;
66721;SDS011;53633;49.932;10.884;2023-03-01T10:20:13;21.73;;;9.13;;
66721;SDS011;53633;49.932;10.884;2023-03-01T10:22:44;21.98;;;8.57;;
66721;SDS011;53633;49.932;10.884;2023-03-01T10:25:12;18.90;;;8.82;;
66721;SDS011;53633;49.932;10.884;2023-03-01T10:27:42;20.75;;;8.07;;
66721;SDS011;53633;49.932;10.884;2023-03-01T10:30:16;21.80;;;8.23;;
66721;SDS011;53633;49.932;10.884;2023-03-01T10:32:45;21.58;;;8.50;;
66721;SDS011;53633;49.932;10.884;2023-03-01T10:35:17;20.23;;;8.93;;
66721;SDS011;53633;49.932;10.884;2023-03-01T10:38:01;21.55;;;10.02;;
66721;SDS011;53633;49.932;10.884;2023-03-01T10:40:29;22.05;;;8.50;;
66721;SDS011;53633;49.932;10.884;2023-03-01T10:42:57;19.30;;;8.15;;
66721;SDS011;53633;49.932;10.884;2023-03-01T10:45:33;18.08;;;8.05;;
66721;SDS011;53633;49.932;10.884;2023-03-01T10:48:12;20.80;;;7.78;;
66721;SDS011;53633;49.932;10.884;2023-03-01T10:50:40;23.42;;;8.68;;
66721;SDS011;53633;49.932;10.884;2023-03-01T10:53:18;20.88;;;9.35;;
66721;SDS011;53633;49.932;10.884;2023-03-01T10:55:56;24.08;;;9.00;;
66721;SDS011;53633;49.932;10.884;2023-03-01T10:58:24;21.63;;;8.77;;
66721;SDS011;53633;49.932;10.884;2023-03-01T11:00:52;24.35;;;9.05;;
66721;SDS011;53633;49.932;10.884;2023-03-01T11:03:21;20.30;;;8.32;;
66721;SDS011;53633;49.932;10.884;2023-03-01T11:05:50;22.30;;;8.70;;
66721;SDS011;53633;49.932;10.884;2023-03-01T11:08:34;22.55;;;8.23;;
66721;SDS011;53633;49.932;10.884;2023-03-01T11:11:10;24.23;;;8.75;;
66721;SDS011;53633;49.932;10.884;2023-03-01T11:13:50;23.27;;;9.68;;
66721;SDS011;53633;49.932;10.884;2023-03-01T11:16:23;22.88;;;9.95;;
66721;SDS011;53633;49.932;10.884;2023-03-01T11:18:59;22.50;;;8.27;;
66721;SDS011;53633;49.932;10.884;2023-03-01T11:21:30;22.90;;;9.57;;
66721;SDS011;53633;49.932;10.884;2023-03-01T11:24:02;21.27;;;9.10;;
66721;SDS011;53633;49.932;10.884;2023-03-01T11:26:34;23.98;;;8.23;;
66721;SDS011;53633;49.932;10.884;2023-03-01T11:29:07;21.92;;;8.52;;
66721;SDS011;53633;49.932;10.884;2023-03-01T11:31:42;23.38;;;9.10;;
66721;SDS011;53633;49.932;10.884;2023-03-01T11:34:23;19.13;;;8.07;;
66721;SDS011;53633;49.932;10.884;2023-03-01T11:36:58;22.70;;;8.57;;
66721;SDS011;53633;49.932;10.884;2023-03-01T11:39:31;29.02;;;9.98;;
66721;SDS011;53633;49.932;10.884;2023-03-01T11:42:05;21.20;;;9.20;;
66721;SDS011;53633;49.932;10.884;2023-03-01T11:44:44;20.73;;;9.32;;
66721;SDS011;53633;49.932;10.884;2023-03-01T11:47:23;21.30;;;8.90;;
66721;SDS011;53633;49.932;10.884;2023-03-01T11:50:01;23.48;;;9.48;;
66721;SDS011;53633;49.932;10.884;2023-03-01T11:52:52;22.92;;;8.55;;
66721;SDS011;53633;49.932;10.884;2023-03-01T11:55:40;20.05;;;8.23;;
66721;SDS011;53633;49.932;10.884;2023-03-01T11:58:22;26.33;;;7.93;;
66721;SDS011;53633;49.932;10.884;2023-03-01T12:01:02;21.95;;;9.07;;
66721;SDS011;53633;49.932;10.884;2023-03-01T12:03:46;19.38;;;8.70;;
66721;SDS011;53633;49.932;10.884;2023-03-01T12:06:29;24.50;;;8.82;;
66721;SDS011;53633;49.932;10.884;2023-03-01T12:09:09;21.00;;;9.23;;
66721;SDS011;53633;49.932;10.884;2023-03-01T12:12:06;19.02;;;8.27;;
66721;SDS011;53633;49.932;10.884;2023-03-01T12:14:52;20.13;;;9.02;;
66721;SDS011;53633;49.932;10.884;2023-03-01T12:17:38;23.77;;;8.70;;
66721;SDS011;53633;49.932;10.884;2023-03-01T12:20:18;22.80;;;8.70;;
66721;SDS011;53633;49.932;10.884;2023-03-01T12:22:52;19.40;;;8.02;;
66721;SDS011;53633;49.932;10.884;2023-03-01T12:25:46;21.45;;;8.23;;
66721;SDS011;53633;49.932;10.884;2023-03-01T12:28:22;19.67;;;8.25;;
66721;SDS011;53633;49.932;10.884;2023-03-01T12:31:01;22.42;;;8.82;;
66721;SDS011;53633;49.932;10.884;2023-03-01T12:33:45;22.25;;;9.45;;
66721;SDS011;53633;49.932;10.884;2023-03-01T12:36:31;19.23;;;8.13;;
66721;SDS011;53633;49.932;10.884;2023-03-01T12:39:09;21.75;;;8.13;;
66721;SDS011;53633;49.932;10.884;2023-03-01T12:41:51;23.20;;;9.50;;
66721;SDS011;53633;49.932;10.884;2023-03-01T12:44:35;21.77;;;8.98;;
66721;SDS011;53633;49.932;10.884;2023-03-01T12:47:18;21.35;;;8.13;;
66721;SDS011;53633;49.932;10.884;2023-03-01T12:49:54;21.02;;;9.40;;
66721;SDS011;53633;49.932;10.884;2023-03-01T12:52:24;18.15;;;8.02;;
66721;SDS011;53633;49.932;10.884;2023-03-01T12:54:59;23.75;;;8.40;;
66721;SDS011;53633;49.932;10.884;2023-03-01T12:57:29;21.10;;;8.07;;
66721;SDS011;53633;49.932;10.884;2023-03-01T13:00:03;19.17;;;7.78;;
66721;SDS011;53633;49.932;10.884;2023-03-01T13:02:42;19.17;;;8.88;;
66721;SDS011;53633;49.932;10.884;2023-03-01T13:05:19;22.13;;;8.40;;
66721;SDS011;53633;49.932;10.884;2023-03-01T13:07:55;17.83;;;7.75;;
66721;SDS011;53633;49.932;10.884;2023-03-01T13:10:29;20.30;;;8.20;;
66721;SDS011;53633;49.932;10.884;2023-03-01T13:13:02;22.83;;;8.43;;
66721;SDS011;53633;49.932;10.884;2023-03-01T13:15:39;22.80;;;9.25;;
66721;SDS011;53633;49.932;10.884;2023-03-01T13:20:56;20.38;;;8.50;;
66721;SDS011;53633;49.932;10.884;2023-03-01T13:23:24;20.23;;;7.25;;
66721;SDS011;53633;49.932;10.884;2023-03-01T13:26:00;18.65;;;7.07;;
66721;SDS011;53633;49.932;10.884;2023-03-01T13:28:38;17.27;;;8.15;;
66721;SDS011;53633;49.932;10.884;2023-03-01T13:34:44;20.58;;;8.63;;
66721;SDS011;53633;49.932;10.884;2023-03-01T13:37:20;18.75;;;7.63;;
66721;SDS011;53633;49.932;10.884;2023-03-01T13:39:51;17.67;;;8.13;;
66721;SDS011;53633;49.932;10.884;2023-03-01T13:42:29;18.15;;;6.75;;
66721;SDS011;53633;49.932;10.884;2023-03-01T13:45:34;17.70;;;7.05;;
66721;SDS011;53633;49.932;10.884;2023-03-01T13:48:08;18.88;;;7.40;;
66721;SDS011;53633;49.932;10.884;2023-03-01T13:50:43;18.20;;;7.20;;
66721;SDS011;53633;49.932;10.884;2023-03-01T13:53:14;19.40;;;7.68;;
66721;SDS011;53633;49.932;10.884;2023-03-01T13:55:44;19.98;;;6.65;;
66721;SDS011;53633;49.932;10.884;2023-03-01T13:58:16;17.02;;;6.85;;
66721;SDS011;53633;49.932;10.884;2023-03-01T14:00:47;13.15;;;5.68;;
66721;SDS011;53633;49.932;10.884;2023-03-01T14:03:20;15.60;;;6.75;;
66721;SDS011;53633;49.932;10.884;2023-03-01T14:05:58;17.20;;;6.95;;
66721;SDS011;53633;49.932;10.884;2023-03-01T14:08:39;18.50;;;7.80;;
66721;SDS011;53633;49.932;10.884;2023-03-01T14:11:21;15.75;;;6.60;;
66721;SDS011;53633;49.932;10.884;2023-03-01T14:14:10;15.27;;;5.60;;
66721;SDS011;53633;49.932;10.884;2023-03-01T14:16:51;16.13;;;5.88;;
66721;SDS011;53633;49.932;10.884;2023-03-01T14:19:23;16.75;;;6.18;;
66721;SDS011;53633;49.932;10.884;2023-03-01T14:22:00;17.52;;;6.80;;
66721;SDS011;53633;49.932;10.884;2023-03-01T14:24:32;16.55;;;6.85;;
66721;SDS011;53633;49.932;10.884;2023-03-01T14:27:01;16.55;;;6.55;;
66721;SDS011;53633;49.932;10.884;2023-03-01T14:29:33;15.52;;;6.28;;
66721;SDS011;53633;49.932;10.884;2023-03-01T14:32:11;14.10;;;6.03;;
66721;SDS011;53633;49.932;10.884;2023-03-01T14:34:44;12.82;;;5.68;;
66721;SDS011;53633;49.932;10.884;2023-03-01T14:37:16;16.17;;;5.85;;
66721;SDS011;53633;49.932;10.884;2023-03-01T14:39:45;17.58;;;6.22;;
66721;SDS011;53633;49.932;10.884;2023-03-01T14:42:13;14.38;;;7.75;;